LEVC/VLC METAR and TAF weather

Enter ICAO airport designator
Station Type Date Time Source
LEVC METAR 2019/08/24 18:00 UTC NOAA

LEVC 241800Z 14007KT CAVOK 28/20 Q1017 NOSIG


Station Type Date Time Source
LEVC Decoded METAR 2019/08/24 18:00 UTC NOAA

Station name not available
Aug 24, 2019 - 02:00 PM EDT / 2019.08.24 1800 UTC
Wind: from the SE (140 degrees) at 8 MPH (7 KT):0
Visibility: greater than 7 mile(s):0
Temperature: 82 F (28 C)
Dew Point: 68 F (20 C)
Relative Humidity: 61%
Pressure (altimeter): 30.03 in. Hg (1017 hPa)
ob: LEVC 241800Z 14007KT CAVOK 28/20 Q1017 NOSIG
cycle: 18

Station Type Date Time Source
LEVC TAF 2019/08/24 18:27 UTC NOAA

TAF LEVC 241700Z 2418/2518 10008KT 9999 FEW020 TX31/2512Z TN18/2506Z
BECMG 2419/2421 29004KT
BECMG 2509/2511 11010KT

Example: see airport list